Time;durP1;ratioP1;P1;durP2;ratioP2;P2;SDS_P1;SDS_P2;PMS_P1;PMS_P2;Temp;Humidity;BMP_temperature;BMP_pressure;BME280_temperature;BME280_humidity;BME280_pressure;Samples;Min_cycle;Max_cycle;Signal;HPM_P1;HPM_P2
2022/05/06 00:01:03;;;;;;;8.35;3.83;;;;;;;6.82;43.09;100433.34;4800850;29;20487;-79
2022/05/06 00:03:29;;;;;;;9.65;4.07;;;;;;;6.76;44.31;100437.50;4794779;29;20121;-82
2022/05/06 00:05:55;;;;;;;9.18;4.40;;;;;;;6.71;45.32;100444.25;4795816;29;20522;-78
2022/05/06 00:08:21;;;;;;;9.18;4.00;;;;;;;6.62;45.86;100434.59;4773031;30;20039;-80
2022/05/06 00:10:46;;;;;;;10.32;4.88;;;;;;;6.56;46.34;100435.31;4797946;29;20051;-79
2022/05/06 00:13:12;;;;;;;8.73;4.50;;;;;;;6.52;46.82;100438.66;4793066;29;20047;-80
2022/05/06 00:15:38;;;;;;;9.85;4.45;;;;;;;6.48;46.78;100439.41;4792577;29;20092;-80
2022/05/06 00:18:04;;;;;;;8.32;3.92;;;;;;;6.45;46.07;100439.31;4796825;29;20503;-80
2022/05/06 00:20:30;;;;;;;7.97;4.22;;;;;;;6.44;46.76;100440.16;4791537;29;20107;-79
2022/05/06 00:22:57;;;;;;;7.68;4.15;;;;;;;6.40;46.76;100438.34;4798240;29;20419;-79
2022/05/06 00:25:24;;;;;;;7.18;4.60;;;;;;;6.33;48.06;100441.59;4790571;29;20039;-79
2022/05/06 00:27:50;;;;;;;8.43;4.50;;;;;;;6.29;47.73;100448.38;4794322;29;20127;-79
2022/05/06 00:30:16;;;;;;;8.77;4.25;;;;;;;6.25;48.84;100443.09;4808366;29;20045;-79
2022/05/06 00:32:42;;;;;;;6.97;4.18;;;;;;;6.24;49.25;100449.97;4792531;29;20419;-80
2022/05/06 00:35:08;;;;;;;;;;;;;;;6.30;49.73;100436.38;4798248;29;20047;-79
2022/05/06 00:37:34;;;;;;;7.07;4.10;;;;;;;6.18;48.72;100446.34;4787234;29;19965;-79
2022/05/06 00:40:00;;;;;;;7.30;4.00;;;;;;;5.99;48.99;100430.41;4787480;29;20039;-77
2022/05/06 00:42:26;;;;;;;7.05;3.63;;;;;;;6.04;49.15;100449.44;4787175;29;20051;-79
2022/05/06 00:44:51;;;;;;;6.28;3.78;;;;;;;6.01;49.01;100441.63;4786589;29;20131;-80
2022/05/06 00:47:19;;;;;;;6.18;3.97;;;;;;;5.98;49.00;100449.28;4790677;29;20054;-80
2022/05/06 00:49:45;;;;;;;8.93;3.80;;;;;;;5.87;49.20;100448.09;4792103;29;20107;-80
2022/05/06 00:52:11;;;;;;;6.32;3.97;;;;;;;5.90;48.85;100445.56;4775855;30;20449;-81
2022/05/06 00:54:37;;;;;;;8.15;3.83;;;;;;;5.91;48.80;100455.06;4802418;29;20503;-79
2022/05/06 00:57:04;;;;;;;6.43;3.20;;;;;;;5.82;48.99;100447.09;4783694;29;20053;-79
2022/05/06 00:59:29;;;;;;;7.35;3.75;;;;;;;5.84;49.33;100453.16;4785222;29;20043;-77
2022/05/06 01:01:57;;;;;;;8.07;4.05;;;;;;;5.80;49.17;100459.03;4787800;30;20175;-79
2022/05/06 01:04:24;;;;;;;7.60;4.13;;;;;;;5.76;49.34;100454.63;4801347;29;20215;-80
2022/05/06 01:06:50;;;;;;;6.45;3.78;;;;;;;5.77;49.65;100446.97;4795378;29;20103;-78
2022/05/06 01:09:16;;;;;;;;;;;;;;;5.90;48.92;100455.88;4786328;29;20031;-79
2022/05/06 01:11:43;;;;;;;;;;;;;;;5.93;48.87;100455.13;4787939;29;19925;-78
2022/05/06 01:14:09;;;;;;;6.45;3.50;;;;;;;5.77;48.17;100448.63;4774840;30;20305;-79
2022/05/06 01:16:36;;;;;;;6.45;3.63;;;;;;;5.67;48.51;100454.38;4774868;30;20043;-78
2022/05/06 01:19:04;;;;;;;9.15;4.22;;;;;;;5.60;48.60;100455.91;4779727;29;20482;-79
2022/05/06 01:21:34;;;;;;;7.45;3.35;;;;;;;5.57;48.66;100456.69;4790761;29;20043;-79
2022/05/06 01:24:01;;;;;;;5.85;3.53;;;;;;;5.57;48.94;100464.41;4791850;29;20049;-80
2022/05/06 01:27:12;;;;;;;6.30;3.88;;;;;;;5.53;50.18;100464.28;4799782;29;20041;-79
2022/05/06 01:29:38;;;;;;;6.50;3.72;;;;;;;5.53;49.19;100469.41;4784099;29;20058;-79
2022/05/06 01:32:04;;;;;;;5.78;3.70;;;;;;;5.54;49.26;100464.34;4796515;29;20070;-78
2022/05/06 01:34:32;;;;;;;8.20;3.70;;;;;;;5.54;49.29;100472.06;4802327;29;20043;-79
2022/05/06 01:37:01;;;;;;;7.05;3.40;;;;;;;5.51;48.92;100477.09;4796280;29;20039;-79
2022/05/06 01:39:31;;;;;;;7.20;3.42;;;;;;;5.54;48.66;100471.16;4776761;29;20147;-79
2022/05/06 01:41:59;;;;;;;6.43;3.20;;;;;;;5.46;48.79;100473.53;4774987;29;20142;-80
2022/05/06 01:44:38;;;;;;;6.10;3.23;;;;;;;5.51;48.20;100471.97;4778522;29;20070;-79
2022/05/06 01:47:10;;;;;;;6.22;3.05;;;;;;;5.57;49.12;100468.69;4778431;29;20054;-79
2022/05/06 01:49:36;;;;;;;5.90;3.33;;;;;;;5.54;49.00;100473.72;4792800;29;20141;-79
2022/05/06 01:52:02;;;;;;;13.35;3.45;;;;;;;5.50;48.52;100472.78;4784093;30;20069;-80
2022/05/06 01:54:28;;;;;;;8.63;3.55;;;;;;;5.52;49.04;100483.13;4753067;30;20040;-78
2022/05/06 01:56:55;;;;;;;7.32;3.67;;;;;;;5.47;49.24;100474.41;4774261;29;20073;-80
2022/05/06 01:59:23;;;;;;;9.10;3.35;;;;;;;5.35;49.30;100464.59;4792051;29;20051;-79
2022/05/06 02:01:55;;;;;;;8.15;3.53;;;;;;;5.51;49.35;100477.09;4786436;29;20506;-79
2022/05/06 02:07:11;;;;;;;6.78;3.33;;;;;;;5.51;48.95;100484.81;4796759;29;20442;-78
2022/05/06 02:09:39;;;;;;;7.03;3.65;;;;;;;5.52;49.27;100484.00;4793801;29;20031;-78
2022/05/06 02:12:10;;;;;;;6.75;3.38;;;;;;;5.54;50.06;100484.03;4790537;29;20058;-79
2022/05/06 02:15:06;;;;;;;7.93;3.60;;;;;;;5.46;49.57;100488.97;4800853;29;20046;-79
2022/05/06 02:17:31;;;;;;;8.18;3.90;;;;;;;5.43;49.66;100478.56;4778985;30;20047;-79
2022/05/06 02:20:17;;;;;;;6.20;3.47;;;;;;;5.42;49.95;100481.97;4788926;30;20039;-78
2022/05/06 02:23:14;;;;;;;5.27;2.90;;;;;;;5.45;49.58;100482.06;4778293;29;20075;-79
2022/05/06 02:25:48;;;;;;;9.45;4.00;;;;;;;5.43;49.63;100488.88;4784637;29;20133;-79
2022/05/06 02:28:25;;;;;;;10.98;3.85;;;;;;;5.46;49.36;100490.66;4775432;30;20062;-78
2022/05/06 02:33:49;;;;;;;7.32;4.13;;;;;;;5.46;50.05;100486.41;4783557;29;20055;-79
2022/05/06 02:36:22;;;;;;;6.80;3.97;;;;;;;5.55;49.89;100496.09;4778454;29;20054;-79
2022/05/06 02:38:47;;;;;;;6.57;3.40;;;;;;;5.58;49.20;100494.44;4776964;30;20051;-79
2022/05/06 02:41:15;;;;;;;7.57;3.67;;;;;;;5.61;47.86;100496.25;4767340;30;20039;-79
2022/05/06 02:43:48;;;;;;;9.65;3.50;;;;;;;5.71;49.02;100492.25;4788045;29;20155;-79
2022/05/06 02:46:15;;;;;;;7.38;3.20;;;;;;;5.72;47.93;100492.28;4787851;29;20046;-78
2022/05/06 02:48:41;;;;;;;5.22;2.30;;;;;;;5.76;45.68;100488.97;4789274;29;20031;-79
2022/05/06 02:51:11;;;;;;;5.93;3.53;;;;;;;5.90;48.50;100504.81;4787850;29;20075;-79
2022/05/06 02:53:39;;;;;;;9.40;3.13;;;;;;;5.92;47.15;100497.19;4787980;29;20449;-80
2022/05/06 02:56:05;;;;;;;12.77;8.75;;;;;;;6.00;46.96;100509.44;4787715;29;20087;-80
2022/05/06 02:58:41;;;;;;;7.60;2.77;;;;;;;6.10;44.92;100501.13;4787449;29;20051;-78
2022/05/06 03:01:07;;;;;;;6.28;3.20;;;;;;;6.15;45.27;100508.97;4761012;29;20504;-80
2022/05/06 03:03:36;;;;;;;10.63;3.78;;;;;;;6.15;46.72;100514.13;4773353;30;20184;-79
2022/05/06 03:06:09;;;;;;;8.60;3.63;;;;;;;6.22;47.02;100515.16;4787980;29;20496;-78
2022/05/06 03:08:37;;;;;;;7.40;3.22;;;;;;;6.29;46.50;100520.53;4787727;29;20554;-81
2022/05/06 03:11:02;;;;;;;6.00;3.03;;;;;;;6.36;45.25;100517.25;4772961;30;20096;-79
2022/05/06 03:13:31;;;;;;;6.15;2.80;;;;;;;6.41;44.99;100519.97;4774917;30;20420;-80
2022/05/06 03:16:02;;;;;;;5.93;2.53;;;;;;;6.35;43.13;100514.66;4791749;29;20038;-79
2022/05/06 03:18:28;;;;;;;4.80;2.22;;;;;;;6.55;42.66;100531.53;4782850;29;20047;-80
2022/05/06 03:20:54;;;;;;;3.90;2.40;;;;;;;6.62;42.06;100540.28;4804645;29;20517;-80
2022/05/06 03:23:20;;;;;;;6.53;2.10;;;;;;;6.70;41.89;100540.50;4772962;30;20510;-81
2022/05/06 03:25:46;;;;;;;4.00;2.25;;;;;;;6.77;41.59;100538.09;4800698;29;20043;-80
2022/05/06 03:28:11;;;;;;;5.00;2.47;;;;;;;6.78;41.38;100528.63;4789257;29;20043;-78
2022/05/06 03:30:39;;;;;;;6.70;2.40;;;;;;;6.80;41.17;100542.47;4791639;29;20043;-79
2022/05/06 03:33:14;;;;;;;;;;;;;;;6.92;41.61;100547.94;4791604;29;20057;-79
2022/05/06 03:35:39;;;;;;;5.32;2.22;;;;;;;6.99;41.46;100548.94;4788195;29;19921;-79
2022/05/06 03:38:06;;;;;;;8.75;2.60;;;;;;;7.03;41.34;100545.63;4801274;29;20039;-78
2022/05/06 03:40:34;;;;;;;5.63;2.40;;;;;;;7.07;41.06;100550.88;4773542;29;20100;-78
2022/05/06 03:43:04;;;;;;;5.55;2.30;;;;;;;7.08;40.35;100547.47;4783890;29;20067;-79
2022/05/06 03:45:31;;;;;;;4.97;2.28;;;;;;;7.14;40.34;100549.31;4774894;29;20057;-78
2022/05/06 03:47:58;;;;;;;4.82;2.20;;;;;;;7.20;41.33;100556.34;4794651;29;20096;-80
2022/05/06 03:53:14;;;;;;;5.47;2.70;;;;;;;7.33;41.28;100563.50;4793611;29;20055;-79
2022/05/06 03:55:41;;;;;;;5.80;2.22;;;;;;;7.41;41.35;100563.69;4794044;29;20371;-81
2022/05/06 03:58:07;;;;;;;4.57;2.67;;;;;;;7.47;40.80;100563.84;4797047;29;20053;-81
2022/05/06 04:00:33;;;;;;;8.48;3.10;;;;;;;7.52;40.77;100563.13;4801764;29;20043;-81
2022/05/06 04:03:04;;;;;;;4.57;2.42;;;;;;;7.64;40.40;100567.66;4787991;29;20118;-80
2022/05/06 04:05:32;;;;;;;5.32;2.60;;;;;;;7.74;40.15;100561.88;4790077;29;20459;-80
2022/05/06 04:08:00;;;;;;;5.82;2.80;;;;;;;7.85;39.75;100562.97;4788910;29;20038;-81
2022/05/06 04:10:28;;;;;;;4.97;2.60;;;;;;;7.94;39.20;100566.59;4786770;29;20054;-81
2022/05/06 04:12:54;;;;;;;6.10;2.65;;;;;;;7.91;38.87;100564.81;4784951;30;20138;-79
2022/05/06 04:15:20;;;;;;;;;;;;;;;8.06;39.57;100572.91;4789530;29;20050;-81
2022/05/06 04:17:47;;;;;;;5.50;2.63;;;;;;;8.06;38.81;100572.91;4802537;29;19921;-81
2022/05/06 04:25:49;;;;;;;4.70;2.50;;;;;;;8.16;38.62;100579.13;4801248;29;20050;-81
2022/05/06 04:28:17;;;;;;;5.55;2.50;;;;;;;8.18;38.48;100568.81;4767158;30;20039;-82
2022/05/06 04:30:46;;;;;;;6.35;2.78;;;;;;;8.14;38.27;100576.50;4786844;29;20137;-80
2022/05/06 04:33:14;;;;;;;7.30;2.90;;;;;;;8.14;38.83;100580.81;4789165;29;20035;-79
2022/05/06 04:35:45;;;;;;;5.20;2.90;;;;;;;8.03;38.23;100583.19;4788697;29;20047;-83
2022/05/06 04:38:13;;;;;;;6.93;3.00;;;;;;;7.97;38.39;100567.56;4774015;30;20067;-80
2022/05/06 04:40:40;;;;;;;9.75;3.17;;;;;;;8.12;38.61;100588.53;4750520;30;20034;-81
2022/05/06 04:43:07;;;;;;;7.47;3.28;;;;;;;8.17;38.29;100585.19;4787181;29;20055;-81
2022/05/06 04:45:39;;;;;;;8.38;3.25;;;;;;;8.19;38.28;100586.94;4777987;29;20045;-81
2022/05/06 04:48:08;;;;;;;11.43;2.70;;;;;;;8.22;38.03;100588.72;4794607;29;20047;-80
2022/05/06 04:50:36;;;;;;;5.57;3.00;;;;;;;8.30;37.94;100584.59;4780659;29;20039;-80
2022/05/06 04:53:02;;;;;;;7.32;2.83;;;;;;;8.37;38.42;100586.47;4796545;29;20062;-81
2022/05/06 04:55:28;;;;;;;6.32;2.95;;;;;;;8.49;37.41;100580.66;4790141;29;20043;-81
2022/05/06 04:57:54;;;;;;;5.68;3.05;;;;;;;8.55;37.62;100584.22;4778873;30;20112;-81
2022/05/06 05:00:21;;;;;;;7.40;3.03;;;;;;;8.68;38.03;100590.50;4793751;29;20043;-81
2022/05/06 05:02:48;;;;;;;6.70;3.20;;;;;;;8.81;36.91;100583.84;4788158;29;20105;-81
2022/05/06 05:05:14;;;;;;;4.63;2.97;;;;;;;8.90;36.88;100584.00;4787852;29;20046;-81
2022/05/06 05:07:40;;;;;;;7.22;3.15;;;;;;;8.98;36.45;100582.44;4787621;29;20068;-81
2022/05/06 05:10:08;;;;;;;7.63;3.42;;;;;;;9.12;36.15;100591.28;4801878;29;20039;-83
2022/05/06 05:12:35;;;;;;;5.90;3.20;;;;;;;9.19;36.05;100576.72;4773302;29;20491;-82
2022/05/06 05:15:02;;;;;;;7.80;3.10;;;;;;;9.42;36.22;100595.22;4784505;29;20133;-81
2022/05/06 05:17:31;;;;;;;7.20;3.10;;;;;;;9.59;36.04;100596.34;4788035;30;20051;-79
2022/05/06 05:19:57;;;;;;;12.40;4.25;;;;;;;9.65;35.60;100593.81;4771836;30;20047;-82
2022/05/06 05:22:25;;;;;;;5.75;3.03;;;;;;;9.64;35.41;100589.50;4791103;29;20051;-81
2022/05/06 05:24:53;;;;;;;7.85;3.25;;;;;;;9.77;35.51;100597.47;4788569;29;20088;-81
2022/05/06 05:27:18;;;;;;;;;;;;;;;9.84;35.63;100599.28;4781794;30;20051;-81
2022/05/06 05:29:45;;;;;;;6.40;2.80;;;;;;;9.82;35.69;100588.91;4790947;30;19963;-83
2022/05/06 05:32:12;;;;;;;6.68;2.70;;;;;;;9.97;35.10;100596.00;4782816;29;20071;-80
2022/05/06 05:34:43;;;;;;;9.80;3.30;;;;;;;10.02;35.82;100591.75;4791366;30;20039;-81
2022/05/06 05:37:10;;;;;;;5.25;2.72;;;;;;;9.94;34.89;100572.63;4778182;30;20086;-82
2022/05/06 05:39:36;;;;;;;4.43;2.80;;;;;;;10.06;34.89;100603.03;4787052;29;20412;-80
2022/05/06 05:42:07;;;;;;;5.43;2.90;;;;;;;10.04;35.35;100592.66;4791041;29;20050;-83
2022/05/06 05:50:08;;;;;;;5.47;2.85;;;;;;;10.29;34.89;100595.56;4806759;29;20053;-81
2022/05/06 05:52:34;;;;;;;5.63;2.60;;;;;;;10.28;35.32;100578.28;4792542;29;20059;-81
2022/05/06 05:55:00;;;;;;;5.43;2.67;;;;;;;10.33;35.06;100584.38;4782615;29;20050;-82
2022/05/06 05:57:26;;;;;;;4.53;2.67;;;;;;;10.33;34.98;100579.19;4805148;29;20031;-82
2022/05/06 05:59:52;;;;;;;6.95;2.90;;;;;;;10.37;35.21;100587.03;4792652;29;20058;-82
2022/05/06 06:02:20;;;;;;;5.88;3.08;;;;;;;10.39;35.37;100584.44;4777632;29;20043;-81
2022/05/06 06:04:49;;;;;;;5.22;2.88;;;;;;;10.48;35.62;100594.91;4798135;29;20510;-82
2022/05/06 06:07:14;;;;;;;;;;;;;;;10.57;34.76;100594.16;4769088;30;20046;-81
2022/05/06 06:09:45;;;;;;;7.28;2.80;;;;;;;10.65;35.42;100589.94;4801407;29;19943;-82
2022/05/06 06:12:12;;;;;;;8.05;2.70;;;;;;;10.71;35.00;100589.97;4809217;29;20164;-81
2022/05/06 06:14:40;;;;;;;6.70;2.40;;;;;;;10.89;34.89;100591.88;4766826;29;20034;-80
2022/05/06 06:17:06;;;;;;;;;;;;;;;11.14;34.99;100590.41;4779461;29;20042;-81
2022/05/06 06:19:33;;;;;;;5.80;2.60;;;;;;;11.10;34.54;100573.06;4809358;29;20093;-82
2022/05/06 06:21:58;;;;;;;;;;;;;;;11.27;34.80;100592.25;4791731;30;20059;-80
2022/05/06 06:24:33;;;;;;;4.40;2.35;;;;;;;11.44;34.16;100597.53;4801169;29;19917;-81
2022/05/06 06:26:59;;;;;;;;;;;;;;;11.52;33.98;100598.47;4788467;29;20054;-81
2022/05/06 06:29:29;;;;;;;4.68;2.70;;;;;;;11.51;33.98;100588.09;4798628;29;19917;-82
2022/05/06 06:31:57;;;;;;;4.72;2.50;;;;;;;11.64;33.81;100588.16;4784530;29;20050;-82
2022/05/06 06:34:23;;;;;;;;;;;;;;;11.65;33.93;100594.25;4782929;30;20620;-82
2022/05/06 06:36:49;;;;;;;5.50;2.70;;;;;;;11.52;34.37;100562.09;4792566;29;19978;-82
2022/05/06 06:39:16;;;;;;;5.60;2.85;;;;;;;11.58;33.97;100551.72;4776924;30;20043;-84
2022/05/06 06:41:46;;;;;;;5.60;2.60;;;;;;;11.85;33.33;100566.66;4778765;30;20051;-80
2022/05/06 06:44:12;;;;;;;6.00;2.83;;;;;;;11.98;34.00;100588.38;4789553;29;20039;-84
2022/05/06 06:47:10;;;;;;;8.18;2.30;;;;;;;12.14;33.67;100577.22;4801534;29;20538;-82
2022/05/06 06:49:52;;;;;;;6.38;2.65;;;;;;;12.30;33.82;100580.72;4811590;29;20110;-85
2022/05/06 06:52:33;;;;;;;4.50;2.92;;;;;;;12.46;33.54;100581.63;4795870;29;20063;-81
2022/05/06 06:54:59;;;;;;;;;;;;;;;12.55;33.28;100592.06;4791662;30;20058;-82
2022/05/06 06:57:26;;;;;;;6.38;2.75;;;;;;;12.55;33.05;100570.38;4797939;29;20027;-82
2022/05/06 06:59:52;;;;;;;4.97;2.38;;;;;;;12.48;32.72;100559.09;4788855;29;20047;-80
2022/05/06 07:02:18;;;;;;;;;;;;;;;12.60;32.89;100579.94;4794053;29;20039;-81
2022/05/06 07:04:47;;;;;;;5.00;2.70;;;;;;;12.59;32.12;100572.13;4776512;30;19925;-83
2022/05/06 07:12:42;;;;;;;5.80;2.90;;;;;;;13.17;31.77;100561.78;4794040;29;20051;-81
2022/05/06 07:15:08;;;;;;;4.90;2.40;;;;;;;13.43;30.91;100548.75;4776235;30;20042;-82
2022/05/06 07:17:36;;;;;;;5.18;2.55;;;;;;;13.75;28.71;100555.66;4778745;30;20100;-84
2022/05/06 07:20:01;;;;;;;4.55;2.15;;;;;;;14.14;27.56;100557.22;4787589;30;20035;-81
2022/05/06 07:22:27;;;;;;;;;;;;;;;14.51;27.46;100568.38;4772669;29;20548;-82
2022/05/06 07:24:53;;;;;;;6.35;2.28;;;;;;;14.81;25.50;100556.03;4775781;30;19952;-83
2022/05/06 07:27:20;;;;;;;;;;;;;;;15.08;25.38;100561.03;4755551;30;20039;-83
2022/05/06 07:29:45;;;;;;;6.57;2.72;;;;;;;15.36;23.72;100568.63;4793191;29;20020;-81
2022/05/06 07:32:11;;;;;;;;;;;;;;;15.52;25.06;100572.81;4796265;29;20051;-82
2022/05/06 07:34:37;;;;;;;6.63;2.60;;;;;;;15.40;22.82;100538.97;4789041;29;19917;-82
2022/05/06 07:37:03;;;;;;;;;;;;;;;15.44;23.43;100564.19;4784604;30;20055;-83
2022/05/06 07:39:28;;;;;;;7.97;2.90;;;;;;;15.55;22.52;100564.97;4790002;29;20253;-82
2022/05/06 07:41:54;;;;;;;;;;;;;;;15.68;22.55;100556.16;4759870;30;20054;-81
2022/05/06 07:44:19;;;;;;;4.47;2.83;;;;;;;15.92;22.53;100575.06;4791755;29;19917;-81
2022/05/06 07:46:45;;;;;;;;;;;;;;;16.21;23.59;100559.84;4791258;29;20042;-79
2022/05/06 07:49:12;;;;;;;6.88;3.50;;;;;;;16.37;21.73;100536.13;4798484;29;19921;-83
2022/05/06 07:51:38;;;;;;;8.57;3.05;;;;;;;16.59;22.12;100560.25;4770224;29;20055;-81
2022/05/06 07:54:04;;;;;;;;;;;;;;;16.79;21.25;100554.75;4790252;30;20058;-81
2022/05/06 07:56:30;;;;;;;8.07;3.30;;;;;;;17.00;21.48;100551.78;4788526;29;19971;-81
2022/05/06 07:58:56;;;;;;;8.30;4.68;;;;;;;17.34;21.19;100553.84;4801486;29;20049;-81
2022/05/06 08:06:51;;;;;;;6.43;3.42;;;;;;;17.72;20.28;100556.59;4789475;29;20051;-81
2022/05/06 08:09:17;;;;;;;8.25;3.80;;;;;;;17.84;20.38;100541.56;4788203;30;20407;-82
2022/05/06 08:11:43;;;;;;;7.57;3.17;;;;;;;17.77;20.34;100533.78;4776291;30;20261;-82
2022/05/06 08:14:09;;;;;;;9.77;2.90;;;;;;;17.75;20.31;100530.34;4790993;29;20046;-82
2022/05/06 08:16:34;;;;;;;8.98;3.03;;;;;;;18.07;20.39;100547.22;4799292;29;20111;-84
2022/05/06 08:19:00;;;;;;;6.07;2.67;;;;;;;18.16;20.19;100531.25;4780170;29;20047;-81
2022/05/06 08:21:26;;;;;;;5.53;2.63;;;;;;;18.22;20.28;100514.50;4777013;29;20047;-83
2022/05/06 08:23:52;;;;;;;4.55;2.70;;;;;;;18.45;19.75;100525.34;4794381;29;20035;-82
2022/05/06 08:26:18;;;;;;;4.80;2.10;;;;;;;18.58;18.69;100525.94;4792362;29;20086;-82
2022/05/06 08:28:44;;;;;;;5.07;1.90;;;;;;;18.60;18.70;100516.28;4774441;30;20035;-81
2022/05/06 08:31:10;;;;;;;5.63;2.30;;;;;;;18.59;19.21;100540.81;4787025;29;20047;-81
2022/05/06 08:33:36;;;;;;;4.63;2.08;;;;;;;18.55;18.75;100518.13;4790530;30;20035;-82
2022/05/06 08:36:02;;;;;;;5.80;2.30;;;;;;;18.47;19.16;100515.69;4804357;29;20084;-82
2022/05/06 08:38:27;;;;;;;7.95;2.60;;;;;;;18.57;19.49;100521.59;4803374;29;20039;-82
2022/05/06 08:40:53;;;;;;;6.80;2.42;;;;;;;18.75;19.24;100530.84;4803251;29;20055;-82
2022/05/06 08:43:19;;;;;;;5.32;2.50;;;;;;;18.74;18.93;100522.09;4803589;29;20452;-82
2022/05/06 08:51:14;;;;;;;7.00;2.00;;;;;;;19.61;18.45;100503.25;4799891;29;20063;-81
2022/05/06 08:53:40;;;;;;;4.60;2.30;;;;;;;19.78;17.95;100484.31;4795861;29;20540;-85
2022/05/06 08:56:06;;;;;;;5.65;2.33;;;;;;;19.77;17.67;100478.19;4770749;30;20112;-83
2022/05/06 08:58:37;;;;;;;6.20;2.58;;;;;;;19.89;17.58;100470.84;4747428;29;20039;-81
2022/05/06 09:01:07;;;;;;;7.35;3.00;;;;;;;20.35;17.47;100506.34;4794033;29;20395;-82
2022/05/06 09:03:33;;;;;;;9.68;2.75;;;;;;;20.69;17.00;100509.66;4793508;29;20500;-82
2022/05/06 09:05:58;;;;;;;8.93;2.90;;;;;;;20.73;17.13;100499.88;4802174;29;20046;-82
2022/05/06 09:08:57;;;;;;;7.55;2.97;;;;;;;20.84;17.44;100512.72;4775042;29;20039;-82
2022/05/06 09:16:39;;;;;;;3.30;2.10;;;;;;;21.14;16.67;100514.34;4802082;29;21288;-83
2022/05/06 09:17:21;;;;;;;4.63;1.92;;;;;;;20.94;16.24;100495.69;4790771;29;20096;-82
2022/05/06 09:19:46;;;;;;;5.15;1.95;;;;;;;21.00;16.38;100479.66;4790148;30;20411;-83
2022/05/06 09:22:13;;;;;;;5.05;1.90;;;;;;;21.40;16.30;100502.06;4778968;30;20050;-82
2022/05/06 09:24:39;;;;;;;4.22;2.00;;;;;;;21.62;16.27;100488.94;4795803;29;20047;-83
2022/05/06 09:27:06;;;;;;;5.18;2.17;;;;;;;21.71;15.73;100507.06;4784696;30;20125;-86
2022/05/06 09:29:54;;;;;;;5.22;1.83;;;;;;;21.99;15.40;100497.22;4795558;29;20125;-83
2022/05/06 09:32:27;;;;;;;2.83;1.70;;;;;;;22.22;15.70;100517.53;4769554;30;20047;-81
2022/05/06 09:35:20;;;;;;;4.75;1.98;;;;;;;22.49;15.77;100493.53;4794090;29;20047;-82
2022/05/06 09:37:47;;;;;;;6.65;1.90;;;;;;;22.89;15.41;100510.44;4799044;29;20063;-83
2022/05/06 09:40:16;;;;;;;4.03;1.70;;;;;;;23.29;15.10;100499.94;4788906;29;20108;-81
2022/05/06 09:42:58;;;;;;;3.47;2.00;;;;;;;23.76;14.84;100501.44;4778245;30;20092;-82
2022/05/06 09:45:33;;;;;;;4.50;1.85;;;;;;;24.04;14.76;100501.03;4804968;29;20062;-82
2022/05/06 09:48:00;;;;;;;6.85;1.98;;;;;;;24.13;14.28;100484.69;4805430;29;20497;-82
2022/05/06 09:50:39;;;;;;;3.47;1.92;;;;;;;24.17;15.10;100494.22;4811059;29;20043;-83
2022/05/06 09:53:07;;;;;;;4.10;2.00;;;;;;;24.42;14.51;100501.91;4811332;29;20082;-83
2022/05/06 09:55:35;;;;;;;4.22;1.80;;;;;;;24.09;14.56;100493.72;4784172;29;20439;-81
2022/05/06 09:58:01;;;;;;;7.15;1.88;;;;;;;23.93;14.68;100492.72;4790936;29;20486;-82
2022/05/06 10:00:27;;;;;;;4.88;1.75;;;;;;;23.80;14.90;100465.91;4782708;29;20038;-83
2022/05/06 10:02:54;;;;;;;4.32;1.60;;;;;;;24.09;14.44;100504.31;4799838;29;20514;-83
2022/05/06 10:05:20;;;;;;;3.50;1.73;;;;;;;24.14;14.42;100504.94;4795889;29;20074;-81
2022/05/06 10:07:46;;;;;;;5.10;1.63;;;;;;;23.93;14.31;100476.81;4784275;30;20046;-83
2022/05/06 10:10:25;;;;;;;3.13;1.65;;;;;;;24.14;14.54;100475.78;4774958;30;20050;-82
2022/05/06 10:12:58;;;;;;;6.50;2.10;;;;;;;24.21;14.21;100477.25;4765708;30;20043;-83
2022/05/06 10:15:28;;;;;;;4.93;2.00;;;;;;;23.78;13.68;100463.34;4783437;29;20047;-85
2022/05/06 10:17:57;;;;;;;3.90;1.80;;;;;;;23.77;13.67;100474.00;4781347;29;20047;-82
2022/05/06 10:20:35;;;;;;;5.55;2.20;;;;;;;23.70;14.48;100476.09;4791011;29;20077;-85
2022/05/06 10:23:07;;;;;;;6.43;2.00;;;;;;;23.90;14.49;100466.34;4795360;30;20104;-83
2022/05/06 10:25:42;;;;;;;3.00;2.00;;;;;;;24.28;14.21;100470.72;4783861;30;20055;-84
2022/05/06 10:34:08;;;;;;;4.38;2.00;;;;;;;23.92;14.06;100475.97;4798360;29;20086;-84
2022/05/06 10:36:53;;;;;;;2.97;1.70;;;;;;;23.37;14.79;100473.13;4811642;29;20053;-83
2022/05/06 10:39:26;;;;;;;5.32;1.80;;;;;;;23.17;14.51;100454.59;4810276;29;20558;-83
2022/05/06 10:42:11;;;;;;;3.80;1.80;;;;;;;23.65;14.83;100459.53;4783010;30;20047;-82
2022/05/06 10:44:41;;;;;;;5.65;1.73;;;;;;;23.81;14.92;100457.03;4766096;30;20043;-83
2022/05/06 10:47:11;;;;;;;3.60;1.80;;;;;;;24.06;14.61;100467.38;4781113;29;20050;-83
2022/05/06 10:49:40;;;;;;;3.40;1.80;;;;;;;24.11;14.36;100464.50;4807455;29;20133;-83
2022/05/06 10:52:15;;;;;;;4.35;1.90;;;;;;;24.38;13.99;100459.72;4795920;29;20137;-82
2022/05/06 10:54:48;;;;;;;2.78;1.65;;;;;;;24.52;14.09;100460.75;4806360;29;20137;-83
2022/05/06 10:57:17;;;;;;;2.67;1.55;;;;;;;24.65;14.02;100445.09;4799907;29;20082;-82
2022/05/06 10:59:50;;;;;;;4.78;1.80;;;;;;;24.49;14.29;100465.34;4772453;30;20807;-83
2022/05/06 11:02:21;;;;;;;3.08;1.80;;;;;;;24.71;13.89;100444.78;4807907;29;20055;-86
2022/05/06 11:04:53;;;;;;;5.70;1.77;;;;;;;24.76;13.46;100452.50;4790573;29;20106;-81
2022/05/06 11:07:19;;;;;;;2.70;1.48;;;;;;;24.82;13.63;100437.13;4792283;29;20468;-83
2022/05/06 11:09:45;;;;;;;4.13;1.75;;;;;;;24.62;13.89;100445.22;4786861;29;20046;-83
2022/05/06 11:12:27;;;;;;;3.60;1.45;;;;;;;24.58;13.49;100433.91;4804475;29;20156;-82
2022/05/06 11:14:56;;;;;;;3.22;1.88;;;;;;;24.88;13.50;100433.31;4766067;30;20058;-84
2022/05/06 11:17:22;;;;;;;4.25;1.70;;;;;;;24.73;13.41;100426.09;4800527;29;20418;-84
2022/05/06 11:19:51;;;;;;;4.68;2.20;;;;;;;25.06;13.10;100428.81;4775231;30;20051;-81
2022/05/06 11:22:17;;;;;;;3.75;1.67;;;;;;;25.35;12.79;100414.91;4763193;30;20043;-83
2022/05/06 11:24:43;;;;;;;4.00;1.60;;;;;;;25.25;12.84;100444.72;4792147;29;20472;-81
2022/05/06 11:27:15;;;;;;;7.68;1.90;;;;;;;25.09;13.14;100447.28;4810716;29;20064;-82
2022/05/06 11:30:00;;;;;;;7.75;1.80;;;;;;;25.04;13.21;100436.03;4794125;29;20129;-84
2022/05/06 11:32:29;;;;;;;3.28;1.60;;;;;;;25.24;13.06;100432.34;4773335;29;20146;-83
2022/05/06 11:34:57;;;;;;;4.18;2.28;;;;;;;25.20;13.04;100417.50;4780718;29;20038;-83
2022/05/06 11:37:31;;;;;;;2.70;1.63;;;;;;;25.54;13.03;100416.59;4794187;30;20051;-82
2022/05/06 11:42:41;;;;;;;2.97;1.55;;;;;;;25.75;12.50;100412.78;4812323;29;20522;-86
2022/05/06 11:47:52;;;;;;;5.28;1.83;;;;;;;25.58;12.75;100404.84;4795472;29;20047;-84
2022/05/06 11:50:18;;;;;;;5.93;1.90;;;;;;;25.36;12.67;100394.53;4789086;29;20045;-82
2022/05/06 11:52:47;;;;;;;2.85;1.52;;;;;;;25.46;12.85;100406.38;4794431;29;20066;-82
2022/05/06 11:55:15;;;;;;;3.35;1.60;;;;;;;25.64;12.60;100401.00;4792555;29;20500;-83
2022/05/06 11:57:41;;;;;;;4.63;1.50;;;;;;;25.75;12.49;100401.25;4795762;29;20096;-83
2022/05/06 12:00:09;;;;;;;2.63;1.40;;;;;;;26.21;11.76;100394.28;4779317;30;20063;-84
2022/05/06 12:02:47;;;;;;;2.80;1.70;;;;;;;25.93;12.04;100368.38;4795372;29;20043;-82
2022/05/06 12:05:13;;;;;;;2.70;1.50;;;;;;;26.05;12.24;100377.47;4800699;29;20047;-85
2022/05/06 12:07:46;;;;;;;2.30;1.40;;;;;;;25.89;12.59;100387.22;4759532;29;20059;-84
2022/05/06 12:10:24;;;;;;;4.05;1.60;;;;;;;26.12;12.33;100400.13;4777979;29;20058;-84
2022/05/06 12:12:55;;;;;;;2.05;1.45;;;;;;;25.91;12.26;100380.03;4778939;30;20104;-83
2022/05/06 12:15:31;;;;;;;4.50;1.58;;;;;;;25.85;12.28;100368.81;4779274;30;20047;-83
2022/05/06 12:18:07;;;;;;;2.47;1.50;;;;;;;25.76;12.51;100358.72;4793687;29;20096;-84
2022/05/06 12:20:41;;;;;;;2.70;1.50;;;;;;;26.34;12.33;100392.63;4791141;30;20047;-82
2022/05/06 12:23:07;;;;;;;2.95;1.35;;;;;;;25.88;12.05;100369.56;4792611;29;20059;-83
2022/05/06 12:25:39;;;;;;;4.38;1.70;;;;;;;25.58;12.50;100357.88;4756155;30;20523;-83
2022/05/06 12:28:21;;;;;;;2.97;1.50;;;;;;;25.63;12.92;100340.84;4775191;30;20110;-82
2022/05/06 12:30:56;;;;;;;3.35;1.40;;;;;;;26.05;12.13;100350.88;4787979;30;20074;-83
2022/05/06 12:33:23;;;;;;;4.97;1.33;;;;;;;26.15;12.05;100354.72;4765618;30;20065;-83